createdAt,value
2022-09-07T00:00:52.204Z,13.20
2022-09-07T00:03:20.436Z,13.20
2022-09-07T00:05:51.156Z,13.20
2022-09-07T00:08:20.873Z,13.20
2022-09-07T00:10:59.764Z,13.10
2022-09-07T00:13:29.436Z,13.10
2022-09-07T00:15:57.778Z,13.30
2022-09-07T00:18:25.643Z,13.20
2022-09-07T00:21:05.301Z,13.10
2022-09-07T00:23:34.140Z,13.10
2022-09-07T00:26:13.443Z,13.10
2022-09-07T00:28:41.368Z,13.20
2022-09-07T00:31:14.639Z,13.20
2022-09-07T00:33:42.989Z,13.30
2022-09-07T00:36:10.450Z,13.40
2022-09-07T00:38:38.204Z,13.30
2022-09-07T00:41:06.207Z,13.20
2022-09-07T00:43:43.277Z,13.20
2022-09-07T00:46:15.769Z,13.20
2022-09-07T00:48:53.220Z,13.30
2022-09-07T00:51:33.779Z,13.40
2022-09-07T00:54:06.090Z,13.40
2022-09-07T00:56:37.444Z,13.20
2022-09-07T00:59:05.477Z,13.10
2022-09-07T01:01:34.181Z,13.10
2022-09-07T01:04:03.046Z,13.00
2022-09-07T01:06:33.751Z,13.00
2022-09-07T01:09:05.284Z,13.00
2022-09-07T01:11:36.717Z,13.00
2022-09-07T01:14:06.711Z,13.10
2022-09-07T01:17:10.918Z,13.10
2022-09-07T01:20:27.213Z,13.00
2022-09-07T01:23:41.121Z,13.10
2022-09-07T01:26:43.893Z,13.20
2022-09-07T01:29:25.432Z,13.20
2022-09-07T01:32:17.481Z,13.10
2022-09-07T01:34:52.243Z,13.10
2022-09-07T01:40:06.597Z,13.00
2022-09-07T01:42:41.234Z,12.90
2022-09-07T01:45:13.741Z,12.90
2022-09-07T01:47:46.113Z,12.90
2022-09-07T01:50:33.683Z,12.90
2022-09-07T01:53:17.500Z,13.00
2022-09-07T01:56:16.508Z,12.90
2022-09-07T01:58:49.127Z,13.00
2022-09-07T02:01:33.020Z,12.90
2022-09-07T02:04:12.545Z,12.90
2022-09-07T02:07:03.963Z,12.90
2022-09-07T02:09:58.029Z,12.90
2022-09-07T02:12:36.419Z,12.90
2022-09-07T02:15:18.546Z,12.90
2022-09-07T02:17:48.358Z,12.90
2022-09-07T02:20:21.699Z,12.90
2022-09-07T02:22:54.199Z,12.90
2022-09-07T02:25:26.079Z,12.80
2022-09-07T02:28:04.012Z,12.80
2022-09-07T02:30:31.443Z,12.80
2022-09-07T02:32:58.859Z,12.90
2022-09-07T02:35:26.307Z,12.80
2022-09-07T02:37:54.584Z,12.90
2022-09-07T02:40:21.963Z,12.80
2022-09-07T02:42:50.062Z,12.80
2022-09-07T02:45:17.887Z,12.80
2022-09-07T02:48:16.503Z,12.90
2022-09-07T02:51:36.079Z,12.80
2022-09-07T02:54:19.939Z,12.80
2022-09-07T02:57:05.483Z,12.80
2022-09-07T02:59:55.783Z,12.80
2022-09-07T03:02:51.994Z,12.70
2022-09-07T03:05:50.517Z,12.80
2022-09-07T03:08:30.020Z,12.80
2022-09-07T03:10:58.428Z,12.70
2022-09-07T03:13:28.490Z,12.70
2022-09-07T03:15:56.719Z,12.70
2022-09-07T03:18:27.992Z,12.80
2022-09-07T03:20:55.524Z,12.80
2022-09-07T03:23:23.172Z,12.70
2022-09-07T03:25:50.810Z,12.80
2022-09-07T03:28:18.246Z,12.70
2022-09-07T03:30:47.538Z,12.60
2022-09-07T03:33:16.089Z,12.60
2022-09-07T03:35:44.850Z,12.60
2022-09-07T03:38:12.360Z,12.60
2022-09-07T03:40:39.736Z,12.50
2022-09-07T03:43:07.151Z,12.50
2022-09-07T03:45:34.738Z,12.60
2022-09-07T03:48:02.317Z,12.60
2022-09-07T03:50:29.687Z,12.60
2022-09-07T03:52:57.010Z,12.60
2022-09-07T03:55:24.396Z,12.70
2022-09-07T03:57:51.828Z,12.80
2022-09-07T04:00:19.319Z,12.80
2022-09-07T04:02:46.789Z,12.80
2022-09-07T04:05:14.400Z,12.80
2022-09-07T04:07:41.768Z,12.80
2022-09-07T04:10:09.495Z,12.80
2022-09-07T04:12:36.824Z,12.70
2022-09-07T04:15:04.556Z,12.70
2022-09-07T04:17:31.903Z,12.70
2022-09-07T04:19:59.291Z,12.70
2022-09-07T04:22:26.616Z,12.70
2022-09-07T04:24:53.999Z,12.70
2022-09-07T04:27:21.323Z,12.80
2022-09-07T04:29:48.683Z,12.80
2022-09-07T04:32:16.169Z,12.80
2022-09-07T04:34:43.556Z,12.90
2022-09-07T04:37:11.942Z,12.90
2022-09-07T04:39:39.416Z,12.90
2022-09-07T04:42:07.107Z,12.90
2022-09-07T04:44:34.608Z,13.00
2022-09-07T04:47:01.937Z,13.00
2022-09-07T04:49:29.331Z,13.00
2022-09-07T04:51:56.644Z,13.10
2022-09-07T04:54:24.025Z,13.20
2022-09-07T04:56:51.349Z,13.40
2022-09-07T04:59:19.730Z,13.40
2022-09-07T05:01:47.117Z,13.40
2022-09-07T05:04:14.754Z,13.50
2022-09-07T05:06:42.313Z,13.60
2022-09-07T05:09:10.773Z,13.70
2022-09-07T05:11:38.265Z,13.70
2022-09-07T05:14:06.067Z,13.80
2022-09-07T05:16:33.633Z,13.80
2022-09-07T05:19:03.326Z,14.00
2022-09-07T05:21:34.758Z,14.20
2022-09-07T05:24:03.359Z,14.30
2022-09-07T05:26:33.232Z,14.40
2022-09-07T05:31:52.110Z,14.50
2022-09-07T05:34:35.017Z,14.50
2022-09-07T05:37:02.740Z,14.60
2022-09-07T05:39:30.461Z,14.60
2022-09-07T05:41:57.858Z,14.70
2022-09-07T05:47:13.598Z,14.80
2022-09-07T05:49:41.123Z,14.90
2022-09-07T05:52:08.544Z,15.00
2022-09-07T05:54:36.295Z,15.10
2022-09-07T05:57:04.121Z,15.10
2022-09-07T05:59:31.896Z,15.40
2022-09-07T06:02:00.226Z,15.50
2022-09-07T06:04:27.817Z,15.60
2022-09-07T06:12:30.208Z,16.20
2022-09-07T06:14:57.694Z,16.40
2022-09-07T06:17:25.013Z,16.40
2022-09-07T06:19:52.572Z,16.50
2022-09-07T06:22:19.978Z,16.40
2022-09-07T06:24:47.424Z,16.40
2022-09-07T06:27:15.458Z,16.50
2022-09-07T06:29:42.888Z,16.60
2022-09-07T06:34:57.662Z,16.80
2022-09-07T06:37:25.089Z,16.90
2022-09-07T06:39:52.539Z,16.90
2022-09-07T06:42:19.967Z,16.90
2022-09-07T06:44:52.692Z,17.10
2022-09-07T06:47:19.985Z,17.10
2022-09-07T06:49:47.511Z,17.20
2022-09-07T06:52:14.884Z,17.30
2022-09-07T06:57:27.225Z,17.50
2022-09-07T06:59:54.686Z,17.80
2022-09-07T07:02:22.203Z,18.10
2022-09-07T07:04:50.248Z,18.50
2022-09-07T07:07:17.960Z,19.00
2022-09-07T07:09:45.421Z,19.60
2022-09-07T07:12:13.279Z,19.70
2022-09-07T07:14:44.680Z,19.80
2022-09-07T07:17:13.115Z,19.90
2022-09-07T07:19:40.882Z,19.90
2022-09-07T07:22:23.967Z,20.00
2022-09-07T07:24:55.816Z,20.10
2022-09-07T07:27:23.365Z,20.10
2022-09-07T07:29:52.516Z,20.30
2022-09-07T07:32:20.105Z,20.40
2022-09-07T07:34:47.525Z,20.40
2022-09-07T07:37:16.069Z,20.40
2022-09-07T07:42:32.679Z,20.50
2022-09-07T07:47:53.632Z,20.70
2022-09-07T07:50:36.256Z,20.60
2022-09-07T07:55:51.217Z,21.00
2022-09-07T07:58:19.114Z,21.20
2022-09-07T08:00:55.778Z,21.10
2022-09-07T08:03:24.905Z,21.10
2022-09-07T08:05:52.709Z,21.30
2022-09-07T08:08:20.697Z,21.50
2022-09-07T08:10:48.150Z,21.60
2022-09-07T08:13:16.711Z,21.80
2022-09-07T08:15:45.305Z,21.90
2022-09-07T08:18:13.742Z,22.10
2022-09-07T08:20:41.816Z,22.30
2022-09-07T08:23:09.655Z,22.40
2022-09-07T08:25:37.027Z,22.50
2022-09-07T08:28:04.610Z,22.70
2022-09-07T08:30:31.901Z,22.80
2022-09-07T08:32:59.283Z,22.90
2022-09-07T08:35:26.798Z,22.90
2022-09-07T08:37:54.447Z,23.00
2022-09-07T08:40:21.751Z,22.80
2022-09-07T08:43:31.929Z,23.00
2022-09-07T08:46:18.274Z,23.10
2022-09-07T08:48:46.213Z,23.30
2022-09-07T08:51:24.403Z,23.40
2022-09-07T08:53:52.299Z,23.50
2022-09-07T08:56:33.844Z,23.60
2022-09-07T08:59:09.689Z,23.60
2022-09-07T09:01:42.604Z,23.80
2022-09-07T09:04:21.783Z,24.20
2022-09-07T09:07:35.518Z,24.30
2022-09-07T09:10:36.943Z,24.20
2022-09-07T09:13:43.112Z,24.40
2022-09-07T09:16:23.864Z,24.20
2022-09-07T09:19:22.959Z,24.00
2022-09-07T09:22:01.395Z,24.00
2022-09-07T09:24:37.340Z,24.20
2022-09-07T09:27:05.128Z,24.50
2022-09-07T09:29:33.483Z,24.80
2022-09-07T09:32:20.819Z,25.10
2022-09-07T09:35:31.489Z,25.40
2022-09-07T09:37:59.057Z,25.80
2022-09-07T09:40:37.025Z,26.30
2022-09-07T09:43:20.065Z,26.30
2022-09-07T09:46:13.283Z,26.20
2022-09-07T09:48:42.123Z,26.10
2022-09-07T09:54:39.263Z,25.70
2022-09-07T09:57:06.812Z,25.50
2022-09-07T10:05:40.813Z,25.10
2022-09-07T10:08:29.937Z,25.10
2022-09-07T10:11:14.231Z,25.10
2022-09-07T10:13:54.896Z,25.10
2022-09-07T10:16:40.374Z,25.20
2022-09-07T10:19:36.086Z,25.30
2022-09-07T10:22:32.424Z,25.30
2022-09-07T10:25:03.912Z,25.10
2022-09-07T10:27:35.808Z,25.00
2022-09-07T10:30:13.272Z,25.00
2022-09-07T10:33:09.170Z,24.80
2022-09-07T10:36:03.791Z,24.70
2022-09-07T10:38:36.910Z,24.70
2022-09-07T10:41:09.811Z,24.50
2022-09-07T10:43:49.907Z,24.30
2022-09-07T10:46:57.833Z,24.40
2022-09-07T10:53:36.911Z,24.70
2022-09-07T10:56:29.053Z,24.80
2022-09-07T11:00:07.473Z,25.00
2022-09-07T11:02:42.108Z,25.30
2022-09-07T11:05:45.652Z,25.60
2022-09-07T11:09:16.465Z,25.80
2022-09-07T11:12:05.659Z,25.70
2022-09-07T11:14:47.123Z,25.70
2022-09-07T11:17:18.075Z,25.80
2022-09-07T11:20:23.817Z,25.80
2022-09-07T11:23:07.429Z,26.00
2022-09-07T11:25:48.022Z,25.90
2022-09-07T11:28:38.349Z,25.90
2022-09-07T11:31:23.342Z,25.90
2022-09-07T11:37:18.169Z,25.90
2022-09-07T11:39:56.006Z,25.90
2022-09-07T11:42:48.161Z,26.10
2022-09-07T11:45:41.166Z,26.20
2022-09-07T11:48:19.511Z,26.90
2022-09-07T11:50:52.151Z,27.20
2022-09-07T11:53:26.973Z,27.20
2022-09-07T11:56:05.769Z,26.80
2022-09-07T11:59:09.849Z,27.00
2022-09-07T12:02:02.469Z,26.80
2022-09-07T12:04:46.711Z,27.30
2022-09-07T12:07:53.931Z,27.20
2022-09-07T12:10:42.489Z,26.60
2022-09-07T12:13:51.870Z,25.80
2022-09-07T12:16:55.703Z,25.40
2022-09-07T12:19:25.059Z,25.10
2022-09-07T12:21:58.139Z,24.80
2022-09-07T12:24:53.287Z,24.60
2022-09-07T12:27:41.003Z,24.30
2022-09-07T12:30:14.027Z,24.10
2022-09-07T12:33:07.499Z,24.00
2022-09-07T12:35:40.060Z,23.80
2022-09-07T12:38:59.649Z,23.80
2022-09-07T12:41:47.321Z,23.60
2022-09-07T12:44:29.248Z,23.50
2022-09-07T12:46:57.760Z,23.40
2022-09-07T12:49:53.014Z,23.30
2022-09-07T12:53:10.350Z,23.20
2022-09-07T12:58:51.475Z,22.90
2022-09-07T13:01:59.278Z,22.70
2022-09-07T13:04:52.876Z,22.50
2022-09-07T13:08:08.801Z,22.40
2022-09-07T13:10:40.820Z,22.20
2022-09-07T13:14:02.658Z,22.10
2022-09-07T13:16:30.101Z,22.00
2022-09-07T13:18:58.123Z,22.00
2022-09-07T13:21:48.868Z,22.00
2022-09-07T13:24:47.280Z,22.00
2022-09-07T13:27:25.128Z,21.90
2022-09-07T13:29:57.317Z,22.10
2022-09-07T13:35:25.057Z,22.20
2022-09-07T13:37:55.723Z,22.50
2022-09-07T13:40:38.135Z,22.80
2022-09-07T13:43:06.226Z,22.90
2022-09-07T13:46:03.934Z,23.30
2022-09-07T13:48:37.175Z,24.30
2022-09-07T13:51:25.803Z,24.90
2022-09-07T13:54:25.094Z,25.40
2022-09-07T13:57:22.128Z,25.80
2022-09-07T13:59:51.756Z,26.30
2022-09-07T14:02:35.336Z,26.50
2022-09-07T14:05:03.357Z,26.60
2022-09-07T14:07:31.575Z,26.20
2022-09-07T14:10:20.947Z,25.80
2022-09-07T14:13:11.592Z,25.80
2022-09-07T14:15:45.746Z,25.60
2022-09-07T14:18:29.021Z,25.30
2022-09-07T14:20:57.441Z,25.10
2022-09-07T14:23:32.152Z,24.80
2022-09-07T14:26:18.951Z,24.80
2022-09-07T14:28:48.028Z,24.90
2022-09-07T14:31:18.030Z,25.00
2022-09-07T14:33:54.435Z,25.10
2022-09-07T14:36:48.269Z,25.30
2022-09-07T14:39:18.654Z,25.90
2022-09-07T14:41:46.484Z,26.60
2022-09-07T14:44:31.206Z,27.20
2022-09-07T14:47:02.929Z,26.90
2022-09-07T14:49:30.407Z,26.30
2022-09-07T14:51:57.691Z,25.70
2022-09-07T14:54:28.865Z,25.10
2022-09-07T14:57:06.427Z,24.60
2022-09-07T14:59:39.836Z,24.40
2022-09-07T15:02:39.708Z,24.10
2022-09-07T15:05:20.660Z,23.90
2022-09-07T15:07:57.764Z,23.70
2022-09-07T15:10:40.243Z,23.60
2022-09-07T15:13:25.954Z,23.50
2022-09-07T15:15:59.085Z,23.50
2022-09-07T15:18:50.676Z,23.60
2022-09-07T15:21:19.008Z,23.60
2022-09-07T15:23:52.783Z,23.70
2022-09-07T15:29:11.165Z,24.10
2022-09-07T15:31:42.533Z,24.40
2022-09-07T15:34:13.417Z,24.60
2022-09-07T15:36:43.970Z,24.80
2022-09-07T15:39:20.447Z,25.20
2022-09-07T15:41:48.891Z,25.70
2022-09-07T15:44:17.903Z,26.90
2022-09-07T15:49:35.875Z,28.30
2022-09-07T15:52:05.123Z,28.60
2022-09-07T15:54:35.093Z,28.80
2022-09-07T15:59:51.547Z,28.80
2022-09-07T16:05:08.128Z,28.40
2022-09-07T16:10:22.931Z,26.70
2022-09-07T16:13:10.820Z,26.00
2022-09-07T16:15:46.087Z,25.40
2022-09-07T16:18:16.910Z,24.70
2022-09-07T16:20:45.078Z,24.20
2022-09-07T16:23:15.690Z,23.90
2022-09-07T16:25:56.156Z,23.60
2022-09-07T16:28:23.502Z,23.30
2022-09-07T16:30:50.963Z,23.00
2022-09-07T16:33:18.334Z,22.70
2022-09-07T16:35:59.809Z,22.40
2022-09-07T16:38:57.260Z,22.30
2022-09-07T16:41:31.332Z,22.20
2022-09-07T16:43:59.360Z,22.00
2022-09-07T16:46:30.604Z,21.90
2022-09-07T16:48:58.157Z,21.70
2022-09-07T16:51:25.565Z,21.60
2022-09-07T16:53:55.080Z,21.50
2022-09-07T16:56:24.194Z,21.50
2022-09-07T16:58:57.242Z,21.50
2022-09-07T17:01:28.405Z,21.40
2022-09-07T17:03:56.230Z,21.40
2022-09-07T17:06:25.605Z,21.40
2022-09-07T17:08:53.557Z,21.30
2022-09-07T17:11:26.520Z,21.10
2022-09-07T17:13:56.713Z,21.10
2022-09-07T17:16:29.725Z,20.90
2022-09-07T17:21:47.003Z,20.80
2022-09-07T17:24:14.425Z,20.80
2022-09-07T17:26:42.926Z,20.70
2022-09-07T17:29:12.821Z,20.70
2022-09-07T17:34:31.441Z,20.60
2022-09-07T17:37:00.565Z,20.40
2022-09-07T17:39:28.648Z,20.30
2022-09-07T17:41:56.343Z,20.30
2022-09-07T17:44:23.800Z,20.10
2022-09-07T17:46:51.583Z,20.10
2022-09-07T17:49:19.286Z,20.00
2022-09-07T17:51:46.667Z,19.90
2022-09-07T17:54:17.422Z,19.90
2022-09-07T17:56:45.648Z,19.90
2022-09-07T18:02:01.144Z,19.90
2022-09-07T18:04:28.888Z,20.00
2022-09-07T18:06:56.482Z,20.00
2022-09-07T18:09:24.151Z,20.00
2022-09-07T18:11:51.509Z,20.00
2022-09-07T18:14:19.593Z,19.90
2022-09-07T18:16:49.388Z,19.90
2022-09-07T18:19:18.307Z,19.90
2022-09-07T18:21:46.350Z,19.80
2022-09-07T18:24:18.834Z,19.80
2022-09-07T18:26:52.058Z,19.80
2022-09-07T18:29:37.573Z,19.90
2022-09-07T18:32:09.346Z,19.80
2022-09-07T18:34:40.589Z,19.80
2022-09-07T18:37:08.507Z,19.70
2022-09-07T18:39:36.402Z,19.70
2022-09-07T18:42:04.240Z,19.70
2022-09-07T18:47:27.708Z,19.80
2022-09-07T18:49:55.672Z,20.00
2022-09-07T18:55:10.431Z,19.80
2022-09-07T18:57:38.023Z,19.80
2022-09-07T19:00:07.994Z,19.70
2022-09-07T19:02:35.836Z,19.60
2022-09-07T19:07:51.371Z,19.60
2022-09-07T19:10:19.043Z,19.60
2022-09-07T19:12:46.633Z,19.50
2022-09-07T19:15:14.417Z,19.60
2022-09-07T19:17:41.819Z,19.70
2022-09-07T19:20:10.305Z,19.50
2022-09-07T19:22:37.765Z,19.40
2022-09-07T19:25:06.299Z,19.50
2022-09-07T19:27:33.900Z,19.50
2022-09-07T19:30:01.564Z,19.50
2022-09-07T19:32:29.271Z,19.50
2022-09-07T19:34:56.698Z,19.50
2022-09-07T19:37:25.644Z,19.30
2022-09-07T19:39:56.702Z,19.10
2022-09-07T19:42:25.121Z,19.00
2022-09-07T19:44:54.173Z,19.00
2022-09-07T19:47:21.827Z,18.80
2022-09-07T19:49:49.234Z,18.50
2022-09-07T19:52:16.641Z,18.40
2022-09-07T19:54:44.078Z,18.30
2022-09-07T19:57:11.393Z,18.20
2022-09-07T19:59:38.726Z,18.10
2022-09-07T20:02:07.158Z,18.00
2022-09-07T20:04:35.836Z,17.90
2022-09-07T20:07:03.319Z,17.80
2022-09-07T20:09:30.769Z,17.70
2022-09-07T20:11:58.293Z,17.70
2022-09-07T20:14:25.627Z,17.70
2022-09-07T20:16:52.923Z,17.60
2022-09-07T20:19:20.314Z,17.50
2022-09-07T20:21:48.943Z,17.40
2022-09-07T20:24:22.166Z,17.30
2022-09-07T20:26:49.675Z,17.30
2022-09-07T20:29:27.180Z,17.20
2022-09-07T20:31:59.750Z,17.20
2022-09-07T20:34:28.203Z,17.10
2022-09-07T20:36:56.783Z,17.10
2022-09-07T20:39:24.393Z,17.10
2022-09-07T20:41:51.889Z,17.10
2022-09-07T20:44:19.339Z,17.00
2022-09-07T20:46:46.884Z,17.00
2022-09-07T20:49:14.399Z,17.00
2022-09-07T20:51:41.771Z,17.00
2022-09-07T20:54:10.201Z,17.00
2022-09-07T20:56:37.564Z,17.10
2022-09-07T20:59:05.338Z,17.10
2022-09-07T21:01:33.317Z,17.00
2022-09-07T21:04:01.506Z,16.90
2022-09-07T21:06:30.990Z,16.90
2022-09-07T21:08:58.681Z,16.90
2022-09-07T21:11:29.291Z,16.80
2022-09-07T21:14:02.249Z,16.80
2022-09-07T21:16:29.602Z,16.70
2022-09-07T21:18:58.838Z,16.70
2022-09-07T21:21:27.470Z,16.70
2022-09-07T21:23:59.626Z,16.70
2022-09-07T21:26:28.307Z,16.60
2022-09-07T21:28:57.332Z,16.60
2022-09-07T21:31:25.621Z,16.60
2022-09-07T21:33:55.062Z,16.70
2022-09-07T21:36:22.818Z,16.80
2022-09-07T21:38:50.657Z,16.70
2022-09-07T21:41:21.044Z,16.70
2022-09-07T21:43:48.520Z,16.60
2022-09-07T21:46:18.270Z,16.60
2022-09-07T21:48:46.562Z,16.70
2022-09-07T21:51:14.752Z,16.70
2022-09-07T21:53:43.265Z,16.60
2022-09-07T21:56:13.469Z,16.70
2022-09-07T21:58:41.399Z,16.70
2022-09-07T22:01:11.704Z,16.70
2022-09-07T22:03:40.646Z,16.70
2022-09-07T22:06:08.886Z,16.70
2022-09-07T22:08:37.800Z,16.70
2022-09-07T22:11:14.785Z,16.70
2022-09-07T22:13:43.155Z,17.00
2022-09-07T22:16:11.263Z,17.10
2022-09-07T22:18:42.487Z,17.00
2022-09-07T22:21:21.856Z,17.00
2022-09-07T22:23:51.549Z,16.90
2022-09-07T22:26:21.880Z,16.80
2022-09-07T22:28:49.538Z,16.70
2022-09-07T22:31:37.624Z,16.70
2022-09-07T22:34:08.179Z,16.70
2022-09-07T22:36:41.395Z,16.70
2022-09-07T22:39:13.251Z,16.70
2022-09-07T22:41:41.677Z,16.50
2022-09-07T22:44:12.564Z,16.50
2022-09-07T22:46:41.984Z,16.40
2022-09-07T22:49:12.277Z,16.40
2022-09-07T22:51:39.567Z,16.30
2022-09-07T22:54:06.949Z,16.10
2022-09-07T22:56:34.945Z,16.10
2022-09-07T22:59:05.543Z,16.10
2022-09-07T23:01:33.318Z,16.20
2022-09-07T23:04:02.089Z,16.30
2022-09-07T23:06:32.653Z,16.20
2022-09-07T23:09:03.343Z,16.20
2022-09-07T23:11:30.659Z,16.10
2022-09-07T23:14:00.653Z,16.10
2022-09-07T23:16:28.786Z,16.20
2022-09-07T23:18:58.255Z,16.30
2022-09-07T23:21:26.365Z,16.20
2022-09-07T23:23:56.919Z,16.10
2022-09-07T23:26:26.351Z,16.00
2022-09-07T23:28:55.641Z,16.00
2022-09-07T23:31:23.753Z,16.30
2022-09-07T23:33:51.740Z,16.30
2022-09-07T23:36:19.623Z,16.10
2022-09-07T23:38:47.278Z,16.00
2022-09-07T23:41:17.867Z,16.00
2022-09-07T23:43:45.281Z,16.20
2022-09-07T23:46:13.594Z,16.20
2022-09-07T23:48:42.923Z,16.20
2022-09-07T23:51:11.054Z,16.00
2022-09-07T23:53:38.640Z,15.90
2022-09-07T23:56:06.569Z,15.70
2022-09-07T23:58:34.480Z,15.70
